Terminal Aerodrome Forecast
Issued by NWS Raleigh/Durham, NC

Home | Current Version | Previous Version | Text Only | Print | Product List | Glossary On
Versions: 1 2 3 4 5 6 7 8 9 10 11 12 13 14 15 16 17 18 19 20 21 22 23 24 25 26 27 28 29 30 31 32 33 34 35 36 37 38 39 40 41 42 43
000
FTUS42 KRAH 300532
TAFRDU
TAF
KRDU 300532Z 3006/3106 VRB05KT P6SM FEW050 SCT150 SCT250
      TEMPO 3010/3012 4SM BR
     FM301300 23004KT P6SM SCT050 SCT250
     FM302100 VRB05KT P6SM VCSH BKN050 OVC100 PROB30 3022/3101 6SM
      TS BKN050CB=

USA.gov is the U.S. government's official web portal to all federal, state and local government web resources and services.